createdAt,value
2022-11-29T00:04:27.936Z,101433.31
2022-11-29T00:09:32.668Z,101435.50
2022-11-29T00:14:35.720Z,101430.75
2022-11-29T00:19:39.151Z,101429.13
2022-11-29T00:24:44.112Z,101429.50
2022-11-29T00:29:47.858Z,101423.75
2022-11-29T00:34:51.193Z,101422.38
2022-11-29T00:39:55.862Z,101417.00
2022-11-29T00:44:58.808Z,101410.53
2022-11-29T00:50:02.218Z,101414.72
2022-11-29T00:55:08.873Z,101420.34
2022-11-29T01:00:13.312Z,101420.19
2022-11-29T01:05:16.655Z,101410.63
2022-11-29T01:10:21.409Z,101413.06
2022-11-29T01:15:24.443Z,101417.75
2022-11-29T01:20:27.752Z,101415.47
2022-11-29T01:25:33.024Z,101414.59
2022-11-29T01:30:36.346Z,101423.38
2022-11-29T01:35:39.655Z,101419.69
2022-11-29T01:40:44.698Z,101416.91
2022-11-29T01:45:47.955Z,101416.16
2022-11-29T01:50:51.998Z,101412.66
2022-11-29T01:56:02.803Z,101417.78
2022-11-29T02:01:06.380Z,101414.81
2022-11-29T02:06:09.842Z,101416.88
2022-11-29T02:11:42.692Z,101419.63
2022-11-29T02:16:56.682Z,101418.97
2022-11-29T02:22:06.903Z,101413.63
2022-11-29T02:28:03.870Z,101415.34
2022-11-29T02:33:38.335Z,101424.50
2022-11-29T02:39:26.986Z,101427.72
2022-11-29T02:44:49.662Z,101428.00
2022-11-29T02:50:13.220Z,101420.75
2022-11-29T02:55:23.113Z,101423.63
2022-11-29T03:00:26.927Z,101429.94
2022-11-29T03:05:42.187Z,101425.97
2022-11-29T03:10:57.949Z,101419.41
2022-11-29T03:16:09.638Z,101427.28
2022-11-29T03:21:25.912Z,101426.75
2022-11-29T03:26:39.733Z,101423.31
2022-11-29T03:31:49.060Z,101430.16
2022-11-29T03:36:59.302Z,101433.44
2022-11-29T03:42:07.569Z,101428.16
2022-11-29T03:47:15.129Z,101432.53
2022-11-29T03:52:24.150Z,101443.25
2022-11-29T03:57:33.041Z,101431.69
2022-11-29T04:03:11.068Z,101435.31
2022-11-29T04:08:53.039Z,101451.00
2022-11-29T04:14:16.496Z,101463.84
2022-11-29T04:20:01.424Z,101464.06
2022-11-29T04:25:35.867Z,101463.94
2022-11-29T04:30:53.983Z,101471.34
2022-11-29T04:36:38.424Z,101478.22
2022-11-29T04:42:02.100Z,101466.25
2022-11-29T04:47:17.207Z,101478.84
2022-11-29T04:52:32.642Z,101483.47
2022-11-29T04:57:44.437Z,101478.41
2022-11-29T05:02:56.989Z,101483.09
2022-11-29T05:08:17.699Z,101481.72
2022-11-29T05:13:30.612Z,101494.03
2022-11-29T05:18:55.578Z,101492.75
2022-11-29T05:24:12.220Z,101494.81
2022-11-29T05:29:26.756Z,101505.25
2022-11-29T05:34:41.929Z,101501.22
2022-11-29T05:39:59.020Z,101502.78
2022-11-29T05:45:10.810Z,101511.19
2022-11-29T05:50:22.976Z,101510.66
2022-11-29T05:55:42.265Z,101513.88
2022-11-29T06:00:52.003Z,101507.78
2022-11-29T06:06:00.937Z,101522.16
2022-11-29T06:11:07.545Z,101514.34
2022-11-29T06:16:42.414Z,101526.69
2022-11-29T06:21:55.503Z,101523.53
2022-11-29T06:27:19.160Z,101525.13
2022-11-29T06:32:33.066Z,101526.78
2022-11-29T06:37:41.433Z,101529.97
2022-11-29T06:42:44.881Z,101543.25
2022-11-29T06:47:54.820Z,101539.78
2022-11-29T06:53:08.667Z,101543.41
2022-11-29T06:58:24.014Z,101559.38
2022-11-29T07:03:41.036Z,101554.38
2022-11-29T07:08:45.213Z,101554.75
2022-11-29T07:13:48.975Z,101555.34
2022-11-29T07:19:04.481Z,101565.44
2022-11-29T07:24:17.300Z,101558.88
2022-11-29T07:29:28.427Z,101558.81
2022-11-29T07:34:41.609Z,101560.31
2022-11-29T07:39:53.333Z,101566.50
2022-11-29T07:45:06.433Z,101570.78
2022-11-29T07:50:14.999Z,101575.38
2022-11-29T07:55:21.216Z,101566.09
2022-11-29T08:00:24.692Z,101575.19
2022-11-29T08:05:29.293Z,101567.25
2022-11-29T08:10:32.359Z,101563.69
2022-11-29T08:15:35.704Z,101566.47
2022-11-29T08:20:41.802Z,101571.16
2022-11-29T08:25:45.937Z,101570.09
2022-11-29T08:30:49.229Z,101560.94
2022-11-29T08:35:53.889Z,101565.38
2022-11-29T08:41:01.337Z,101568.94
2022-11-29T08:46:04.930Z,101566.91
2022-11-29T08:51:09.625Z,101578.69
2022-11-29T08:57:04.361Z,101571.16
2022-11-29T09:01:38.291Z,101564.81
2022-11-29T09:06:44.485Z,101571.28
2022-11-29T09:11:49.583Z,101571.16
2022-11-29T09:16:53.082Z,101574.38
2022-11-29T09:21:57.831Z,101575.03
2022-11-29T09:27:01.443Z,101564.78
2022-11-29T09:32:05.212Z,101558.19
2022-11-29T09:37:09.831Z,101563.03
2022-11-29T09:42:43.407Z,101558.50
2022-11-29T09:48:05.791Z,101547.56
2022-11-29T09:53:31.235Z,101555.00
2022-11-29T09:58:43.857Z,101563.72
2022-11-29T10:03:53.020Z,101559.50
2022-11-29T10:09:03.487Z,101538.34
2022-11-29T10:14:22.663Z,101536.94
2022-11-29T10:19:33.638Z,101544.06
2022-11-29T10:24:39.419Z,101536.22
2022-11-29T10:29:42.651Z,101543.41
2022-11-29T10:34:46.998Z,101547.25
2022-11-29T10:39:57.367Z,101565.44
2022-11-29T10:45:01.426Z,101559.94
2022-11-29T10:50:04.900Z,101556.16
2022-11-29T10:55:14.844Z,101554.88
2022-11-29T11:00:18.852Z,101558.88
2022-11-29T11:05:27.798Z,101553.75
2022-11-29T11:10:32.731Z,101555.84
2022-11-29T11:15:36.074Z,101550.75
2022-11-29T11:20:42.364Z,101553.75
2022-11-29T11:25:50.183Z,101551.69
2022-11-29T11:30:56.702Z,101552.66
2022-11-29T11:36:06.540Z,101552.13
2022-11-29T11:41:44.681Z,101557.44
2022-11-29T11:46:50.511Z,101561.81
2022-11-29T11:51:53.752Z,101566.44
2022-11-29T11:56:58.949Z,101564.13
2022-11-29T12:02:02.305Z,101570.16
2022-11-29T12:07:16.670Z,101569.72
2022-11-29T12:12:25.519Z,101568.09
2022-11-29T12:17:35.758Z,101567.69
2022-11-29T12:22:48.297Z,101576.22
2022-11-29T12:27:53.960Z,101575.88
2022-11-29T12:33:17.865Z,101577.94
2022-11-29T12:38:45.501Z,101590.31
2022-11-29T12:44:04.068Z,101585.34
2022-11-29T12:49:17.448Z,101589.81
2022-11-29T12:54:42.392Z,101584.25
2022-11-29T13:00:00.936Z,101584.03
2022-11-29T13:05:13.878Z,101586.66
2022-11-29T13:10:34.144Z,101588.31
2022-11-29T13:15:43.129Z,101585.19
2022-11-29T13:20:52.370Z,101588.06
2022-11-29T13:25:58.609Z,101579.66
2022-11-29T13:31:08.392Z,101576.41
2022-11-29T13:36:17.334Z,101577.47
2022-11-29T13:41:29.652Z,101576.75
2022-11-29T13:46:42.806Z,101570.34
2022-11-29T13:51:47.304Z,101592.97
2022-11-29T13:56:50.785Z,101584.50
2022-11-29T14:01:57.162Z,101584.50
2022-11-29T14:07:07.441Z,101591.19
2022-11-29T14:12:31.282Z,101579.06
2022-11-29T14:17:50.165Z,101579.34
2022-11-29T14:23:18.222Z,101580.50
2022-11-29T14:28:32.405Z,101580.75
2022-11-29T14:34:01.810Z,101576.16
2022-11-29T14:39:20.271Z,101579.09
2022-11-29T14:44:28.374Z,101576.38
2022-11-29T14:49:41.371Z,101579.88
2022-11-29T14:54:56.639Z,101585.03
2022-11-29T15:00:00.448Z,101593.72
2022-11-29T15:05:15.623Z,101588.84
2022-11-29T15:10:23.767Z,101590.09
2022-11-29T15:15:54.011Z,101603.28
2022-11-29T15:21:23.257Z,101598.44
2022-11-29T15:26:28.231Z,101599.44
2022-11-29T15:31:32.425Z,101589.44
2022-11-29T15:36:44.614Z,101576.06
2022-11-29T15:41:47.942Z,101584.34
2022-11-29T15:46:51.465Z,101595.06
2022-11-29T15:51:59.828Z,101585.69
2022-11-29T15:57:10.302Z,101584.00
2022-11-29T16:02:19.595Z,101575.94
2022-11-29T16:07:27.300Z,101588.47
2022-11-29T16:12:31.099Z,101586.28
2022-11-29T16:17:36.329Z,101577.28
2022-11-29T16:22:41.678Z,101593.78
2022-11-29T16:27:45.297Z,101587.13
2022-11-29T16:32:54.215Z,101588.25
2022-11-29T16:38:00.398Z,101584.13
2022-11-29T16:43:23.692Z,101597.09
2022-11-29T16:48:32.277Z,101592.81
2022-11-29T16:53:38.594Z,101590.19
2022-11-29T16:59:20.956Z,101594.25
2022-11-29T17:04:07.200Z,101597.19
2022-11-29T17:09:21.209Z,101597.28
2022-11-29T17:14:24.850Z,101591.03
2022-11-29T17:19:31.110Z,101594.28
2022-11-29T17:24:36.193Z,101597.13
2022-11-29T17:29:39.976Z,101595.00
2022-11-29T17:34:43.809Z,101598.13
2022-11-29T17:39:49.260Z,101591.75
2022-11-29T17:44:52.978Z,101594.44
2022-11-29T17:49:58.153Z,101595.91
2022-11-29T17:55:03.009Z,101596.41
2022-11-29T18:00:08.994Z,101599.41
2022-11-29T18:05:12.967Z,101595.34
2022-11-29T18:10:18.136Z,101607.34
2022-11-29T18:15:22.553Z,101603.41
2022-11-29T18:20:25.930Z,101608.13
2022-11-29T18:25:38.816Z,101616.34
2022-11-29T18:30:43.519Z,101612.31
2022-11-29T18:35:46.981Z,101603.25
2022-11-29T18:40:54.642Z,101606.81
2022-11-29T18:45:58.228Z,101617.03
2022-11-29T18:51:03.593Z,101605.78
2022-11-29T18:56:10.962Z,101588.94
2022-11-29T19:01:16.479Z,101602.75
2022-11-29T19:06:23.974Z,101603.31
2022-11-29T19:11:30.928Z,101600.16
2022-11-29T19:16:35.933Z,101602.75
2022-11-29T19:21:41.162Z,101600.47
2022-11-29T19:26:47.949Z,101608.16
2022-11-29T19:31:52.196Z,101608.56
2022-11-29T19:36:55.498Z,101613.44
2022-11-29T19:42:00.194Z,101618.88
2022-11-29T19:47:03.689Z,101623.41
2022-11-29T19:52:07.006Z,101621.72
2022-11-29T19:57:11.950Z,101623.19
2022-11-29T20:02:15.872Z,101621.94
2022-11-29T20:07:19.333Z,101606.88
2022-11-29T20:12:24.055Z,101613.22
2022-11-29T20:17:27.432Z,101613.06
2022-11-29T20:22:30.956Z,101613.44
2022-11-29T20:27:35.877Z,101600.50
2022-11-29T20:32:39.345Z,101615.81
2022-11-29T20:38:03.018Z,101618.28
2022-11-29T20:43:14.849Z,101618.50
2022-11-29T20:48:21.384Z,101608.78
2022-11-29T20:53:37.567Z,101622.59
2022-11-29T20:58:42.299Z,101619.22
2022-11-29T21:03:45.589Z,101629.38
2022-11-29T21:08:49.922Z,101628.81
2022-11-29T21:13:55.161Z,101637.16
2022-11-29T21:19:01.401Z,101646.81
2022-11-29T21:24:15.165Z,101636.00
2022-11-29T21:29:21.705Z,101632.19
2022-11-29T21:34:25.016Z,101639.03
2022-11-29T21:39:33.371Z,101637.56
2022-11-29T21:44:38.077Z,101641.53
2022-11-29T21:49:42.000Z,101634.16
2022-11-29T21:54:45.455Z,101639.97
2022-11-29T21:59:50.172Z,101637.66
2022-11-29T22:04:53.529Z,101647.59
2022-11-29T22:09:56.921Z,101648.41
2022-11-29T22:15:01.681Z,101645.41
2022-11-29T22:20:07.886Z,101646.16
2022-11-29T22:25:11.032Z,101637.03
2022-11-29T22:30:16.302Z,101645.09
2022-11-29T22:35:19.670Z,101648.34
2022-11-29T22:40:22.851Z,101640.25
2022-11-29T22:45:27.577Z,101642.03
2022-11-29T22:50:30.857Z,101645.59
2022-11-29T22:55:34.016Z,101645.44
2022-11-29T23:00:44.225Z,101640.03
2022-11-29T23:05:47.403Z,101639.88
2022-11-29T23:10:57.121Z,101654.63
2022-11-29T23:16:02.408Z,101654.94
2022-11-29T23:21:08.109Z,101645.38
2022-11-29T23:26:18.937Z,101636.69
2022-11-29T23:31:24.840Z,101645.84
2022-11-29T23:36:28.288Z,101632.97
2022-11-29T23:41:31.583Z,101639.69
2022-11-29T23:46:37.224Z,101622.75
2022-11-29T23:51:40.523Z,101636.03
2022-11-29T23:56:43.842Z,101632.88
